Time;durP1;ratioP1;P1;durP2;ratioP2;P2;SDS_P1;SDS_P2;PMS_P1;PMS_P2;Temp;Humidity;BMP_temperature;BMP_pressure;BME280_temperature;BME280_humidity;BME280_pressure;Samples;Min_cycle;Max_cycle;Signal;HPM_P1;HPM_P2
2022/06/27 00:01:32;;;;;;;7.97;6.35;;;;;;;15.49;100.00;100434.38;5072873;28;20420;-68
2022/06/27 00:03:57;;;;;;;7.80;5.70;;;;;;;15.65;100.00;100469.44;5055194;28;20032;-68
2022/06/27 00:06:23;;;;;;;8.45;7.45;;;;;;;15.68;100.00;100493.09;5065632;28;20026;-68
2022/06/27 00:08:48;;;;;;;8.48;7.00;;;;;;;15.74;100.00;100493.50;5090814;28;20103;-67
2022/06/27 00:11:14;;;;;;;11.15;7.80;;;;;;;15.73;100.00;100502.38;5086662;28;20368;-67
2022/06/27 00:13:40;;;;;;;9.57;7.55;;;;;;;15.67;100.00;100492.22;5083675;28;20114;-67
2022/06/27 00:16:05;;;;;;;7.93;6.28;;;;;;;15.69;100.00;100497.41;5092694;28;20120;-68
2022/06/27 00:18:31;;;;;;;8.05;6.40;;;;;;;15.63;100.00;100495.19;5076163;28;20459;-68
2022/06/27 00:20:56;;;;;;;17.33;7.25;;;;;;;15.66;100.00;100510.88;5085207;28;20024;-68
2022/06/27 00:23:22;;;;;;;7.63;6.18;;;;;;;15.56;100.00;100501.84;5067849;28;20528;-68
2022/06/27 00:25:47;;;;;;;14.82;5.82;;;;;;;15.57;100.00;100506.22;5082913;28;20035;-68
2022/06/27 00:28:12;;;;;;;7.30;5.45;;;;;;;15.49;100.00;100497.94;5077814;28;20099;-68
2022/06/27 00:30:39;;;;;;;9.25;6.60;;;;;;;15.57;100.00;100519.47;5073751;28;20035;-68
2022/06/27 00:33:04;;;;;;;14.43;6.90;;;;;;;15.61;100.00;100529.75;5078357;28;20548;-68
2022/06/27 00:35:30;;;;;;;7.55;5.88;;;;;;;15.53;100.00;100507.38;5089861;28;20028;-68
2022/06/27 00:37:55;;;;;;;9.07;6.55;;;;;;;15.62;100.00;100530.56;5090246;28;20389;-68
2022/06/27 00:40:21;;;;;;;7.57;5.78;;;;;;;15.62;100.00;100527.91;5091114;28;20058;-67
2022/06/27 00:42:46;;;;;;;6.47;5.38;;;;;;;15.57;100.00;100516.81;5077369;28;20070;-67
2022/06/27 00:45:11;;;;;;;6.93;6.03;;;;;;;15.61;100.00;100529.75;5074504;28;20111;-68
2022/06/27 00:47:37;;;;;;;6.72;5.47;;;;;;;15.61;100.00;100542.13;5083902;28;20101;-68
2022/06/27 00:50:04;;;;;;;7.30;5.88;;;;;;;15.62;100.00;100542.00;5092128;28;20028;-68
2022/06/27 00:52:29;;;;;;;7.07;5.50;;;;;;;15.54;100.00;100517.88;5083236;28;20429;-68
2022/06/27 00:54:55;;;;;;;8.15;5.85;;;;;;;15.66;100.00;100521.47;5072662;28;20032;-68
2022/06/27 00:57:21;;;;;;;7.03;5.78;;;;;;;15.66;100.00;100511.72;5080377;28;20024;-68
2022/06/27 00:59:46;;;;;;;10.07;6.70;;;;;;;15.32;100.00;100454.91;5085677;28;20028;-68
2022/06/27 01:02:12;;;;;;;7.85;6.68;;;;;;;15.68;100.00;100503.69;5084425;28;20020;-67
2022/06/27 01:04:38;;;;;;;10.13;7.82;;;;;;;15.46;100.00;100447.81;5053046;28;20028;-68
2022/06/27 01:07:08;;;;;;;10.30;8.60;;;;;;;15.76;100.00;100504.81;5048288;28;20020;-68
2022/06/27 01:09:34;;;;;;;13.88;8.77;;;;;;;15.73;100.00;100496.25;5059362;28;20368;-68
2022/06/27 01:11:59;;;;;;;11.02;7.50;;;;;;;15.74;100.00;100497.94;5069122;28;20046;-68
2022/06/27 01:14:25;;;;;;;19.02;7.45;;;;;;;15.76;100.00;100504.81;5062644;28;20378;-68
2022/06/27 01:16:50;;;;;;;13.48;7.65;;;;;;;15.50;100.00;100459.91;5072634;28;20459;-68
2022/06/27 01:19:17;;;;;;;10.48;7.13;;;;;;;15.73;100.00;100488.28;5093078;28;20024;-67
2022/06/27 01:21:51;;;;;;;8.52;7.15;;;;;;;15.76;100.00;100490.72;5079647;28;20060;-67
2022/06/27 01:24:18;;;;;;;7.97;6.63;;;;;;;15.73;100.00;100485.66;5080974;28;20052;-67
2022/06/27 01:26:44;;;;;;;9.57;6.55;;;;;;;15.78;100.00;100494.13;5084826;28;20079;-68
2022/06/27 01:29:10;;;;;;;7.38;5.85;;;;;;;15.77;100.00;100481.81;5070231;28;20021;-67
2022/06/27 01:31:37;;;;;;;8.82;6.75;;;;;;;15.76;100.00;100475.69;5073589;28;20059;-68
2022/06/27 01:34:03;;;;;;;7.05;6.30;;;;;;;15.72;100.00;100468.91;5068891;28;20047;-68
2022/06/27 01:36:43;;;;;;;8.35;6.75;;;;;;;15.71;100.00;100459.28;5085646;28;20108;-68
2022/06/27 01:39:18;;;;;;;7.80;5.97;;;;;;;15.78;100.00;100479.06;5066468;28;20024;-68
2022/06/27 01:41:46;;;;;;;7.55;6.22;;;;;;;15.77;100.00;100471.22;5075135;28;20071;-68
2022/06/27 01:44:12;;;;;;;10.27;7.05;;;;;;;15.74;100.00;100466.16;5066966;28;20024;-68
2022/06/27 01:46:45;;;;;;;11.15;6.80;;;;;;;15.66;100.00;100448.13;5082083;28;20137;-68
2022/06/27 01:49:15;;;;;;;8.43;6.38;;;;;;;15.63;100.00;100442.22;5086111;28;20085;-68
2022/06/27 01:51:42;;;;;;;11.77;7.32;;;;;;;15.68;100.00;100456.81;5081255;28;20073;-68
2022/06/27 01:54:08;;;;;;;8.18;5.68;;;;;;;15.17;100.00;100387.16;5068948;28;20116;-68
2022/06/27 01:56:34;;;;;;;8.27;5.70;;;;;;;15.51;100.00;100432.47;5065404;28;20028;-68
2022/06/27 01:59:00;;;;;;;10.15;6.57;;;;;;;15.42;100.00;100430.41;5075540;28;20148;-68
2022/06/27 02:01:26;;;;;;;7.57;5.80;;;;;;;15.42;100.00;100454.25;5069714;28;20056;-68
2022/06/27 02:03:53;;;;;;;8.00;5.93;;;;;;;15.34;100.00;100468.88;5075874;28;20429;-68
2022/06/27 02:06:19;;;;;;;8.32;5.47;;;;;;;15.38;100.00;100473.97;5084442;28;20137;-68
2022/06/27 02:08:46;;;;;;;8.57;6.13;;;;;;;15.34;100.00;100460.94;5065993;28;20119;-68
2022/06/27 02:11:13;;;;;;;8.18;6.55;;;;;;;15.20;100.00;100445.16;5089803;28;20087;-68
2022/06/27 02:13:38;;;;;;;10.20;6.63;;;;;;;15.25;100.00;100448.31;5083492;28;20120;-68
2022/06/27 02:16:06;;;;;;;8.40;6.10;;;;;;;15.24;100.00;100446.63;5083086;28;20506;-68
2022/06/27 02:18:32;;;;;;;9.70;6.35;;;;;;;15.09;100.00;100420.38;5047951;28;20059;-68
2022/06/27 02:20:58;;;;;;;8.70;6.93;;;;;;;15.19;100.00;100419.63;5066720;28;20020;-68
2022/06/27 02:23:23;;;;;;;9.82;7.28;;;;;;;15.26;100.00;100433.28;5049304;28;20025;-68
2022/06/27 02:25:49;;;;;;;10.00;6.68;;;;;;;15.20;100.00;100413.41;5084999;28;20089;-68
2022/06/27 02:28:16;;;;;;;15.48;7.28;;;;;;;15.25;100.00;100426.28;5040752;28;20471;-67
2022/06/27 02:30:41;;;;;;;10.70;7.03;;;;;;;15.12;100.00;100409.56;5087959;28;20024;-68
2022/06/27 02:33:07;;;;;;;13.32;8.95;;;;;;;15.20;100.00;100418.69;5069113;28;20382;-67
2022/06/27 02:35:32;;;;;;;9.35;7.53;;;;;;;15.18;100.00;100415.28;5057487;28;20052;-67
2022/06/27 02:37:59;;;;;;;12.63;9.88;;;;;;;15.25;100.00;100416.56;5095276;28;20383;-67
2022/06/27 02:40:25;;;;;;;9.60;8.48;;;;;;;15.24;100.00;100416.69;5093489;28;20031;-67
2022/06/27 02:42:52;;;;;;;13.10;9.55;;;;;;;15.32;100.00;100427.56;5069777;28;20485;-67
2022/06/27 02:45:17;;;;;;;9.95;8.90;;;;;;;15.28;100.00;100405.75;5069215;28;20028;-67
2022/06/27 02:47:45;;;;;;;15.45;11.30;;;;;;;15.31;100.00;100413.47;5070780;28;20514;-67
2022/06/27 02:50:11;;;;;;;16.80;8.90;;;;;;;15.23;100.00;100402.59;5057229;28;20448;-68
2022/06/27 02:52:41;;;;;;;14.60;10.15;;;;;;;15.26;100.00;100412.97;5079248;28;20032;-68
2022/06/27 02:55:12;;;;;;;11.30;10.18;;;;;;;15.16;100.00;100401.31;5066800;28;20036;-68
2022/06/27 02:57:47;;;;;;;14.50;9.30;;;;;;;15.11;100.00;100391.97;5087560;28;20025;-68
2022/06/27 03:00:14;;;;;;;12.43;10.57;;;;;;;15.07;100.00;100382.59;5077333;28;20066;-68
2022/06/27 03:02:43;;;;;;;15.20;10.30;;;;;;;15.12;100.00;100398.97;5050447;28;20083;-68
2022/06/27 03:05:08;;;;;;;14.40;10.85;;;;;;;15.11;100.00;100387.53;5092876;28;20020;-68
2022/06/27 03:07:41;;;;;;;14.77;10.48;;;;;;;15.17;100.00;100408.31;5080999;28;20032;-68
2022/06/27 03:10:07;;;;;;;20.40;11.43;;;;;;;14.79;100.00;100343.94;5074375;28;20075;-68
2022/06/27 03:12:32;;;;;;;12.95;10.43;;;;;;;15.17;100.00;100396.88;5082355;28;20027;-68
2022/06/27 03:14:58;;;;;;;12.20;10.48;;;;;;;15.09;100.00;100393.91;5076333;28;20029;-67
2022/06/27 03:17:23;;;;;;;14.60;11.68;;;;;;;15.09;100.00;100389.47;5067865;28;20028;-68
2022/06/27 03:19:50;;;;;;;14.30;11.30;;;;;;;15.01;100.00;100399.72;5078971;28;20494;-68
2022/06/27 03:22:16;;;;;;;13.75;10.82;;;;;;;15.00;100.00;100399.84;5094618;28;20036;-68
2022/06/27 03:24:41;;;;;;;13.80;11.70;;;;;;;14.97;100.00;100400.88;5093254;28;20031;-68
2022/06/27 03:27:06;;;;;;;12.95;10.82;;;;;;;14.58;100.00;100356.81;5088378;28;20029;-68
2022/06/27 03:29:32;;;;;;;12.25;10.60;;;;;;;14.66;100.00;100380.09;5073900;28;20360;-68
2022/06/27 03:31:57;;;;;;;15.02;12.07;;;;;;;14.73;100.00;100397.25;5086282;28;20020;-67
2022/06/27 03:34:23;;;;;;;17.40;11.25;;;;;;;14.75;100.00;100412.06;5084150;28;20032;-67
2022/06/27 03:36:49;;;;;;;15.27;11.65;;;;;;;14.74;100.00;100409.50;5090654;28;20811;-67
2022/06/27 03:39:14;;;;;;;11.65;10.45;;;;;;;14.86;100.00;100424.59;5077537;28;20373;-67
2022/06/27 03:41:40;;;;;;;13.40;11.18;;;;;;;14.86;100.00;100424.59;5070618;28;20028;-67
2022/06/27 03:44:08;;;;;;;12.98;11.10;;;;;;;14.80;100.00;100414.41;5077550;28;20036;-67
2022/06/27 03:46:37;;;;;;;13.77;11.65;;;;;;;14.83;100.00;100414.22;5081698;28;20051;-67
2022/06/27 03:51:47;;;;;;;16.75;13.50;;;;;;;14.79;100.00;100412.72;5071753;28;20050;-67
2022/06/27 03:54:12;;;;;;;17.02;13.05;;;;;;;14.87;100.00;100405.09;5063500;28;20028;-67
2022/06/27 03:56:38;;;;;;;14.73;12.27;;;;;;;14.89;100.00;100407.66;5080083;28;20024;-67
2022/06/27 03:59:03;;;;;;;15.02;13.43;;;;;;;14.88;100.00;100396.22;5068533;28;20032;-68
2022/06/27 04:01:28;;;;;;;24.08;12.88;;;;;;;15.00;100.00;100416.56;5074500;28;20033;-68
2022/06/27 04:03:54;;;;;;;17.85;13.32;;;;;;;15.07;100.00;100409.88;5066083;28;20129;-67
2022/06/27 04:06:19;;;;;;;15.40;13.75;;;;;;;14.98;100.00;100380.56;5031050;28;20032;-67
2022/06/27 04:08:45;;;;;;;17.75;13.65;;;;;;;15.06;100.00;100400.25;5080495;28;20031;-67
2022/06/27 04:11:10;;;;;;;19.67;14.55;;;;;;;15.08;100.00;100408.94;5075815;28;20370;-67
2022/06/27 04:13:35;;;;;;;18.80;14.85;;;;;;;15.01;100.00;100402.34;5069873;28;20032;-67
2022/06/27 04:16:01;;;;;;;17.08;15.30;;;;;;;14.93;100.00;100394.13;5074157;28;20024;-67
2022/06/27 04:18:26;;;;;;;15.55;14.05;;;;;;;15.14;100.00;100413.78;5082916;28;20021;-67
2022/06/27 04:20:52;;;;;;;16.98;15.23;;;;;;;15.10;100.00;100396.47;5076292;28;20016;-67
2022/06/27 04:23:17;;;;;;;20.35;17.55;;;;;;;15.22;100.00;100410.63;5084869;28;20057;-67
2022/06/27 04:25:43;;;;;;;19.80;17.70;;;;;;;15.24;100.00;100398.97;5083889;28;20066;-67
2022/06/27 04:28:09;;;;;;;19.90;16.02;;;;;;;15.22;100.00;100389.44;5078219;28;20538;-67
2022/06/27 04:30:34;;;;;;;19.05;17.15;;;;;;;15.25;100.00;100387.44;5086305;28;20040;-68
2022/06/27 04:33:00;;;;;;;18.52;16.60;;;;;;;15.30;100.00;100392.44;5073330;28;20313;-68
2022/06/27 04:35:25;;;;;;;18.83;16.70;;;;;;;15.30;100.00;100395.94;5059120;28;20024;-68
2022/06/27 04:37:52;;;;;;;22.75;16.08;;;;;;;15.26;100.00;100380.34;5083304;28;20031;-67
2022/06/27 04:40:20;;;;;;;19.13;16.10;;;;;;;15.31;100.00;100384.34;5090275;28;20032;-67
2022/06/27 04:42:49;;;;;;;17.63;15.05;;;;;;;15.23;100.00;100380.56;5081978;28;20032;-67
2022/06/27 04:45:15;;;;;;;17.63;15.55;;;;;;;15.06;100.00;100349.13;5063669;28;20029;-67
2022/06/27 04:47:41;;;;;;;24.50;15.23;;;;;;;15.23;100.00;100375.28;5062388;28;20114;-67
2022/06/27 04:50:09;;;;;;;17.80;15.95;;;;;;;15.17;100.00;100355.38;5063521;28;20024;-66
2022/06/27 04:52:35;;;;;;;20.45;15.68;;;;;;;15.25;100.00;100368.91;5072521;28;20024;-67
2022/06/27 04:55:00;;;;;;;17.27;15.55;;;;;;;15.28;100.00;100368.69;5079927;28;20040;-68
2022/06/27 04:57:27;;;;;;;23.65;15.93;;;;;;;15.11;100.00;100344.34;5077149;28;20033;-67
2022/06/27 04:59:52;;;;;;;17.90;16.02;;;;;;;15.26;100.00;100356.53;5059221;28;20024;-67
2022/06/27 05:02:18;;;;;;;16.65;15.02;;;;;;;15.29;100.00;100359.81;5059131;28;20108;-68
2022/06/27 05:04:44;;;;;;;20.90;15.45;;;;;;;15.26;100.00;100344.13;5071958;28;20379;-67
2022/06/27 05:07:09;;;;;;;18.98;17.05;;;;;;;15.35;100.00;100353.22;5083047;28;20024;-68
2022/06/27 05:09:35;;;;;;;20.17;18.15;;;;;;;15.39;100.00;100360.00;5084830;28;20482;-68
2022/06/27 05:12:00;;;;;;;17.75;15.88;;;;;;;15.31;100.00;100352.59;5075642;28;20032;-68
2022/06/27 05:14:26;;;;;;;17.10;15.35;;;;;;;15.34;100.00;100368.25;5092854;28;20035;-68
2022/06/27 05:16:51;;;;;;;19.13;16.70;;;;;;;15.39;100.00;100364.44;5060884;28;20034;-68
2022/06/27 05:19:17;;;;;;;17.90;16.00;;;;;;;15.35;100.00;100354.06;5064027;28;20016;-68
2022/06/27 05:21:43;;;;;;;19.17;16.17;;;;;;;15.51;100.00;100384.81;5073908;28;20060;-68
2022/06/27 05:24:08;;;;;;;25.20;20.85;;;;;;;15.54;100.00;100389.88;5093041;28;20105;-68
2022/06/27 05:26:35;;;;;;;19.25;17.33;;;;;;;15.76;100.00;100405.94;5060331;28;20504;-68
2022/06/27 05:29:01;;;;;;;21.52;19.30;;;;;;;15.89;100.00;100412.03;5058399;28;20078;-68
2022/06/27 05:31:27;;;;;;;19.52;17.73;;;;;;;15.96;100.00;100408.00;5043706;28;20032;-68
2022/06/27 05:33:53;;;;;;;19.60;17.55;;;;;;;16.14;100.00;100424.38;5064429;28;20459;-68
2022/06/27 05:36:21;;;;;;;26.10;17.70;;;;;;;16.09;100.00;100419.41;5081683;28;20067;-68
2022/06/27 05:38:47;;;;;;;18.08;16.08;;;;;;;16.03;100.00;100398.66;5091217;28;20028;-68
2022/06/27 05:41:12;;;;;;;24.02;18.23;;;;;;;16.27;100.00;100444.59;5074059;28;20515;-68
2022/06/27 05:43:39;;;;;;;20.17;17.98;;;;;;;16.28;100.00;100451.59;5081691;28;20036;-68
2022/06/27 05:46:04;;;;;;;19.50;17.50;;;;;;;16.14;100.00;100449.09;5071769;28;20024;-68
2022/06/27 05:48:30;;;;;;;21.77;17.58;;;;;;;16.26;100.00;100477.38;5082254;28;20031;-68
2022/06/27 05:50:56;;;;;;;20.40;18.25;;;;;;;16.26;100.00;100469.41;5082806;28;20047;-68
2022/06/27 05:53:23;;;;;;;20.08;18.00;;;;;;;16.14;100.00;100446.44;5045989;28;20090;-68
2022/06/27 05:55:49;;;;;;;21.42;17.85;;;;;;;16.20;100.00;100450.44;5073624;28;20024;-68
2022/06/27 05:58:14;;;;;;;19.17;16.52;;;;;;;16.09;100.00;100443.25;5087405;28;20034;-68
2022/06/27 06:00:40;;;;;;;19.80;15.13;;;;;;;16.20;100.00;100469.84;5067221;28;20032;-68
2022/06/27 06:03:06;;;;;;;22.25;16.08;;;;;;;16.17;100.00;100478.03;5061028;28;20025;-68
2022/06/27 06:05:32;;;;;;;19.85;14.77;;;;;;;16.13;100.00;100478.34;5074751;28;20032;-68
2022/06/27 06:08:02;;;;;;;19.35;15.32;;;;;;;16.18;100.00;100514.22;5061214;28;20036;-68
2022/06/27 06:10:28;;;;;;;18.73;14.65;;;;;;;15.91;100.00;100470.25;5045925;28;20033;-68
2022/06/27 06:12:54;;;;;;;17.48;13.73;;;;;;;16.13;100.00;100516.31;5080276;28;20024;-67
2022/06/27 06:15:20;;;;;;;14.77;13.18;;;;;;;16.14;100.00;100512.72;5085925;28;20573;-67
2022/06/27 06:17:45;;;;;;;18.92;15.40;;;;;;;16.18;100.00;100524.81;5066277;28;20036;-68
2022/06/27 06:20:12;;;;;;;17.73;14.77;;;;;;;16.25;100.00;100531.38;5064482;28;20383;-68
2022/06/27 06:22:38;;;;;;;16.00;14.35;;;;;;;16.21;100.00;100519.28;5066771;28;20074;-68
2022/06/27 06:25:04;;;;;;;18.15;14.23;;;;;;;16.15;100.00;100503.81;5076245;28;20032;-68
2022/06/27 06:27:29;;;;;;;14.35;12.57;;;;;;;16.16;100.00;100489.59;5084829;28;20042;-68
2022/06/27 06:29:55;;;;;;;16.30;13.23;;;;;;;16.14;100.00;100480.91;5074254;28;20099;-68
2022/06/27 06:32:21;;;;;;;14.82;12.65;;;;;;;16.14;100.00;100459.69;5080203;28;20028;-68
2022/06/27 06:34:48;;;;;;;12.05;10.43;;;;;;;16.24;100.00;100428.06;5076943;28;20036;-68
2022/06/27 06:37:13;;;;;;;11.25;10.05;;;;;;;16.32;100.00;100423.06;5081151;28;20021;-68
2022/06/27 06:39:38;;;;;;;13.73;12.23;;;;;;;16.27;100.00;100402.16;5048527;28;20098;-68
2022/06/27 06:42:05;;;;;;;15.88;12.43;;;;;;;16.46;100.00;100433.47;5070248;28;20034;-68
2022/06/27 06:44:31;;;;;;;14.27;11.82;;;;;;;16.38;100.00;100427.06;5064947;28;20036;-68
2022/06/27 06:46:56;;;;;;;14.63;11.13;;;;;;;16.54;100.00;100472.69;5091526;28;20508;-68
2022/06/27 06:49:23;;;;;;;20.58;12.60;;;;;;;16.55;100.00;100474.41;5081225;28;20028;-68
2022/06/27 06:51:49;;;;;;;13.02;11.77;;;;;;;16.53;100.00;100478.97;5087947;28;20032;-68
2022/06/27 06:54:20;;;;;;;16.67;11.77;;;;;;;16.45;100.00;100454.81;5066938;28;20038;-68
2022/06/27 06:56:49;;;;;;;13.98;11.57;;;;;;;16.57;100.00;100461.91;5088264;28;20040;-68
2022/06/27 06:59:15;;;;;;;29.55;12.35;;;;;;;16.66;100.00;100458.56;5069597;28;20024;-68
2022/06/27 07:01:41;;;;;;;14.27;12.23;;;;;;;16.62;100.00;100434.09;5074051;28;20025;-68
2022/06/27 07:04:07;;;;;;;13.38;11.93;;;;;;;16.51;100.00;100403.97;5086122;28;20105;-68
2022/06/27 07:06:33;;;;;;;14.30;11.55;;;;;;;16.83;100.00;100477.56;5084934;28;20056;-68
2022/06/27 07:09:00;;;;;;;15.68;11.68;;;;;;;16.93;100.00;100491.03;5078837;28;20112;-68
2022/06/27 07:11:30;;;;;;;20.73;12.50;;;;;;;16.98;100.00;100469.41;5081513;28;20039;-68
2022/06/27 07:13:56;;;;;;;19.10;12.50;;;;;;;17.07;100.00;100464.25;5064890;28;20080;-68
2022/06/27 07:16:23;;;;;;;16.70;11.77;;;;;;;17.10;100.00;100453.41;5061656;28;20058;-68
2022/06/27 07:18:50;;;;;;;18.67;12.15;;;;;;;17.05;100.00;100447.59;5065407;28;20434;-68
2022/06/27 07:21:19;;;;;;;18.58;10.95;;;;;;;17.29;100.00;100472.28;5058836;28;20025;-68
2022/06/27 07:23:49;;;;;;;14.65;11.63;;;;;;;17.42;100.00;100455.41;5093627;28;20042;-68
2022/06/27 07:26:18;;;;;;;14.18;10.88;;;;;;;17.38;100.00;100441.50;5088485;28;20058;-68
2022/06/27 07:28:44;;;;;;;15.25;10.93;;;;;;;17.61;100.00;100461.00;5071961;28;20103;-68
2022/06/27 07:31:12;;;;;;;19.77;11.40;;;;;;;17.82;100.00;100481.44;5035818;28;20078;-68
2022/06/27 07:33:45;;;;;;;15.30;10.48;;;;;;;17.94;100.00;100494.72;5048514;28;20028;-68
2022/06/27 07:36:17;;;;;;;18.13;9.27;;;;;;;17.94;100.00;100506.22;5094713;28;20103;-68
2022/06/27 07:38:44;;;;;;;15.23;8.55;;;;;;;17.87;100.00;100499.69;5091758;28;20032;-68
2022/06/27 07:41:10;;;;;;;14.13;8.82;;;;;;;17.70;100.00;100487.72;5055857;28;20037;-68
2022/06/27 07:43:37;;;;;;;14.70;9.23;;;;;;;17.66;100.00;100490.72;5087705;28;20115;-68
2022/06/27 07:46:03;;;;;;;14.18;7.93;;;;;;;17.82;100.00;100523.97;5073984;28;20024;-68
2022/06/27 07:48:28;;;;;;;11.02;8.00;;;;;;;17.75;100.00;100496.16;5071896;28;20376;-68
2022/06/27 07:50:56;;;;;;;11.45;8.15;;;;;;;17.79;100.00;100488.81;5091546;28;20050;-68
2022/06/27 07:53:22;;;;;;;10.57;8.00;;;;;;;18.01;100.00;100512.75;5065152;28;20032;-68
2022/06/27 07:55:51;;;;;;;13.05;7.25;;;;;;;18.03;100.00;100525.91;5088574;28;20049;-68
2022/06/27 07:58:18;;;;;;;11.90;6.35;;;;;;;18.09;100.00;100539.56;5090656;28;20024;-68
2022/06/27 08:00:45;;;;;;;11.23;7.40;;;;;;;18.08;100.00;100545.03;5062226;28;20021;-68
2022/06/27 08:05:57;;;;;;;13.27;7.63;;;;;;;17.97;100.00;100542.34;5083752;28;20079;-68
2022/06/27 08:08:23;;;;;;;10.13;7.45;;;;;;;18.00;100.00;100539.44;5083662;28;20036;-68
2022/06/27 08:10:50;;;;;;;12.65;7.75;;;;;;;18.02;100.00;100535.69;5082252;28;20028;-68
2022/06/27 08:13:15;;;;;;;10.88;6.50;;;;;;;18.03;100.00;100542.72;5062343;28;20032;-68
2022/06/27 08:15:41;;;;;;;9.75;6.88;;;;;;;18.02;100.00;100535.69;5083136;28;20111;-68
2022/06/27 08:18:07;;;;;;;11.05;7.40;;;;;;;18.00;100.00;100534.97;5072982;28;20044;-69
2022/06/27 08:20:34;;;;;;;10.32;6.63;;;;;;;17.97;100.00;100548.53;5086422;28;20024;-68
2022/06/27 08:23:00;;;;;;;8.65;6.35;;;;;;;17.98;100.00;100565.31;5055687;28;20036;-68
2022/06/27 08:25:25;;;;;;;9.77;6.85;;;;;;;17.95;100.00;100561.06;5070032;28;20046;-68
2022/06/27 08:27:51;;;;;;;15.07;7.57;;;;;;;17.91;100.00;100564.97;5061362;28;20158;-68
2022/06/27 08:30:16;;;;;;;9.57;6.32;;;;;;;17.84;100.00;100547.78;5070700;28;20394;-68
2022/06/27 08:32:42;;;;;;;11.15;7.05;;;;;;;17.96;100.00;100584.03;5062708;28;20033;-68
2022/06/27 08:35:08;;;;;;;10.70;6.50;;;;;;;18.00;100.00;100569.53;5070896;28;20032;-68
2022/06/27 08:37:34;;;;;;;13.90;6.60;;;;;;;17.82;100.00;100531.09;5065041;28;20746;-69
2022/06/27 08:40:01;;;;;;;8.20;6.28;;;;;;;18.00;100.00;100563.38;5058981;28;20025;-68
2022/06/27 08:42:27;;;;;;;16.05;6.32;;;;;;;18.09;100.00;100563.50;5057185;28;20493;-68
2022/06/27 08:44:53;;;;;;;10.77;6.22;;;;;;;18.25;100.00;100571.94;5060042;28;20024;-68
2022/06/27 08:47:19;;;;;;;9.57;5.90;;;;;;;18.30;100.00;100560.97;5073529;28;20498;-68
2022/06/27 08:49:49;;;;;;;7.78;5.32;;;;;;;18.37;100.00;100578.13;5054103;28;20090;-68
2022/06/27 08:52:15;;;;;;;10.13;7.25;;;;;;;18.39;100.00;100587.69;5063282;28;20040;-68
2022/06/27 08:54:40;;;;;;;10.25;7.32;;;;;;;18.35;100.00;100580.91;5053162;28;20548;-68
2022/06/27 08:57:08;;;;;;;15.43;6.63;;;;;;;18.30;100.00;100566.28;5048223;28;20087;-68
2022/06/27 08:59:34;;;;;;;9.82;6.50;;;;;;;18.55;100.00;100602.47;5068897;28;20142;-68
2022/06/27 09:01:59;;;;;;;10.45;6.88;;;;;;;18.57;100.00;100596.03;5086029;28;20420;-68
2022/06/27 09:04:24;;;;;;;11.45;6.78;;;;;;;18.63;100.00;100589.38;5072265;28;20478;-68
2022/06/27 09:06:50;;;;;;;12.35;7.40;;;;;;;18.81;100.00;100604.72;5090278;28;20028;-68
2022/06/27 09:09:15;;;;;;;12.15;7.97;;;;;;;18.75;100.00;100577.75;5081602;28;20034;-69
2022/06/27 09:11:42;;;;;;;7.65;6.13;;;;;;;18.84;100.00;100599.16;5042656;28;20025;-68
2022/06/27 09:14:43;;;;;;;12.02;7.00;;;;;;;18.94;100.00;100593.06;5055410;28;20032;-68
2022/06/27 09:17:15;;;;;;;12.38;6.47;;;;;;;18.95;100.00;100600.94;5033803;28;20029;-68
2022/06/27 09:19:55;;;;;;;13.70;6.57;;;;;;;18.87;100.00;100590.06;5049014;28;20041;-68
2022/06/27 09:22:24;;;;;;;9.77;6.10;;;;;;;19.03;100.00;100614.47;5070003;28;20036;-69
2022/06/27 09:25:09;;;;;;;10.77;7.32;;;;;;;19.04;100.00;100599.31;5062539;28;20032;-68
2022/06/27 09:27:40;;;;;;;12.13;7.95;;;;;;;19.10;100.00;100604.13;5062671;28;20029;-68
2022/06/27 09:30:18;;;;;;;18.60;9.00;;;;;;;19.13;100.00;100596.75;5054703;28;20025;-68
2022/06/27 09:32:44;;;;;;;12.88;9.00;;;;;;;19.11;100.00;100590.72;5063110;28;20487;-68
2022/06/27 09:35:27;;;;;;;15.15;9.25;;;;;;;19.07;100.00;100583.94;5056241;28;20033;-68
2022/06/27 09:37:58;;;;;;;12.55;9.65;;;;;;;19.11;100.00;100579.19;5054412;28;20416;-68
2022/06/27 09:40:25;;;;;;;12.55;9.02;;;;;;;19.17;100.00;100573.38;5063204;28;20060;-68
2022/06/27 09:42:55;;;;;;;13.60;8.93;;;;;;;19.22;100.00;100576.50;5081098;28;20119;-68
2022/06/27 09:45:25;;;;;;;13.07;10.48;;;;;;;19.31;100.00;100581.91;5053705;28;20029;-68
2022/06/27 09:48:01;;;;;;;17.38;9.73;;;;;;;19.32;100.00;100566.78;5058179;28;20120;-68
2022/06/27 09:50:32;;;;;;;16.92;11.18;;;;;;;19.43;100.00;100576.56;5066998;28;20483;-70
2022/06/27 09:52:57;;;;;;;15.63;10.13;;;;;;;19.49;100.00;100581.38;5063124;28;20127;-68
2022/06/27 09:55:25;;;;;;;11.73;9.27;;;;;;;19.65;100.00;100584.44;5072144;28;20437;-68
2022/06/27 09:57:52;;;;;;;14.60;10.10;;;;;;;19.70;100.00;100569.72;5058958;28;20020;-68
2022/06/27 10:00:20;;;;;;;13.68;9.00;;;;;;;19.77;100.00;100578.88;5082637;28;20032;-68
2022/06/27 10:02:46;;;;;;;14.50;8.80;;;;;;;19.65;100.00;100576.44;5086954;28;20027;-68
2022/06/27 10:05:14;;;;;;;9.30;6.57;;;;;;;19.45;100.00;100571.94;5037322;28;20025;-68
2022/06/27 10:07:42;;;;;;;9.88;7.47;;;;;;;19.22;100.00;100555.19;5065296;28;20029;-68
2022/06/27 10:10:08;;;;;;;12.23;7.22;;;;;;;19.28;100.00;100566.19;5050842;28;20036;-68
2022/06/27 10:12:36;;;;;;;10.25;7.13;;;;;;;19.32;100.00;100567.63;5085241;28;20032;-68
2022/06/27 10:15:11;;;;;;;13.23;7.10;;;;;;;19.45;100.00;100570.13;5072476;28;20115;-68
2022/06/27 10:17:46;;;;;;;10.05;7.78;;;;;;;19.12;100.00;100480.53;5066439;28;20490;-68
2022/06/27 10:20:19;;;;;;;12.82;8.82;;;;;;;19.72;100.00;100553.59;5067909;28;20028;-68
2022/06/27 10:22:47;;;;;;;14.35;8.27;;;;;;;19.98;100.00;100552.19;5066522;28;20045;-68
2022/06/27 10:25:32;;;;;;;9.98;7.45;;;;;;;20.29;100.00;100561.91;5075128;28;20042;-68
2022/06/27 10:28:07;;;;;;;13.07;10.10;;;;;;;20.56;100.00;100565.78;5081620;28;20028;-68
2022/06/27 10:31:01;;;;;;;14.50;11.02;;;;;;;20.72;100.00;100561.59;5058095;28;20037;-68
2022/06/27 10:33:26;;;;;;;15.02;10.18;;;;;;;20.73;100.00;100578.47;5060205;28;20040;-69
2022/06/27 10:38:24;;;;;;;13.77;9.23;;;;;;;20.81;100.00;100575.97;5056822;28;20025;-69
2022/06/27 10:40:51;;;;;;;10.93;6.38;;;;;;;20.74;100.00;100562.34;5060984;28;20028;-69
2022/06/27 10:43:37;;;;;;;10.65;5.95;;;;;;;20.73;100.00;100583.81;5057521;28;20103;-69
2022/06/27 10:46:28;;;;;;;9.93;5.55;;;;;;;20.60;100.00;100564.53;5069407;28;20049;-69
2022/06/27 10:48:58;;;;;;;13.77;4.93;;;;;;;20.70;100.00;100570.75;5084528;28;20036;-68
2022/06/27 10:51:26;;;;;;;10.13;5.38;;;;;;;20.66;100.00;100580.00;5084273;28;20110;-69
2022/06/27 10:54:08;;;;;;;7.63;5.03;;;;;;;20.71;100.00;100581.31;5076192;28;20139;-69
2022/06/27 10:56:36;;;;;;;8.32;6.15;;;;;;;20.70;100.00;100563.59;5071038;28;20106;-69
2022/06/27 10:59:05;;;;;;;9.27;6.13;;;;;;;21.03;100.00;100581.06;5085444;28;20025;-69
2022/06/27 11:01:31;;;;;;;8.75;5.57;;;;;;;21.12;100.00;100568.75;5066733;28;20055;-69
2022/06/27 11:03:58;;;;;;;13.77;6.82;;;;;;;21.26;100.00;100582.50;5038237;28;20478;-70
2022/06/27 11:06:24;;;;;;;9.80;6.88;;;;;;;20.98;100.00;100586.00;5058374;28;20063;-69
2022/06/27 11:08:52;;;;;;;7.85;4.75;;;;;;;20.55;100.00;100527.56;5056631;28;20151;-69
2022/06/27 11:11:22;;;;;;;8.02;4.72;;;;;;;20.79;100.00;100568.09;5062949;28;20021;-69
2022/06/27 11:13:47;;;;;;;9.30;5.80;;;;;;;20.73;100.00;100567.81;5061872;28;20082;-69
2022/06/27 11:16:17;;;;;;;10.43;5.75;;;;;;;20.70;100.00;100576.09;5060212;28;20147;-69